Time;durP1;ratioP1;P1;durP2;ratioP2;P2;SDS_P1;SDS_P2;PMS_P1;PMS_P2;Temp;Humidity;BMP_temperature;BMP_pressure;BME280_temperature;BME280_humidity;BME280_pressure;Samples;Min_cycle;Max_cycle;Signal;HPM_P1;HPM_P2
2021/06/14 00:01:14;;;;;;;7.65;3.30;;;17.70;76.40;;;;;;4995305;28;20061;-81
2021/06/14 00:03:40;;;;;;;7.85;2.90;;;17.70;76.50;;;;;;5014031;28;20029;-81
2021/06/14 00:06:06;;;;;;;6.00;3.22;;;17.70;77.20;;;;;;5013702;28;20033;-82
2021/06/14 00:08:32;;;;;;;8.48;3.17;;;17.70;76.90;;;;;;5013187;28;20030;-82
2021/06/14 00:10:58;;;;;;;6.00;3.13;;;17.60;76.20;;;;;;5013011;28;20034;-83
2021/06/14 00:13:26;;;;;;;7.20;2.90;;;17.60;76.30;;;;;;4995346;28;20494;-81
2021/06/14 00:15:52;;;;;;;6.38;3.22;;;17.60;76.40;;;;;;5013319;28;20033;-82
2021/06/14 00:18:19;;;;;;;7.55;3.22;;;17.60;76.80;;;;;;4995519;28;20585;-82
2021/06/14 00:20:59;;;;;;;6.53;3.08;;;17.60;76.80;;;;;;5013153;28;20466;-82
2021/06/14 00:23:27;;;;;;;7.60;3.28;;;17.50;77.00;;;;;;5013344;28;20036;-82
2021/06/14 00:25:53;;;;;;;6.88;3.30;;;17.50;76.90;;;;;;5013131;28;20026;-81
2021/06/14 00:28:19;;;;;;;8.05;3.95;;;17.50;77.00;;;;;;4995771;28;20037;-81
2021/06/14 00:30:47;;;;;;;10.25;4.35;;;17.40;77.20;;;;;;4995315;28;20033;-82
2021/06/14 00:33:15;;;;;;;7.43;3.42;;;17.40;77.20;;;;;;5012971;28;20103;-82
2021/06/14 00:35:42;;;;;;;8.60;3.53;;;17.50;77.30;;;;;;4997222;28;20033;-81
2021/06/14 00:38:08;;;;;;;10.73;4.25;;;17.50;77.00;;;;;;4995293;28;20049;-81
2021/06/14 00:40:34;;;;;;;9.57;4.20;;;17.50;77.10;;;;;;5012479;28;20035;-81
2021/06/14 00:43:01;;;;;;;8.38;3.50;;;17.40;77.20;;;;;;5013362;28;20118;-80
2021/06/14 00:45:31;;;;;;;8.00;3.35;;;17.40;77.30;;;;;;4993764;28;20127;-81
2021/06/14 00:47:57;;;;;;;8.55;3.25;;;17.40;77.30;;;;;;4994123;28;20026;-80
2021/06/14 00:50:38;;;;;;;7.15;3.55;;;17.30;77.80;;;;;;4993558;28;20026;-81
2021/06/14 00:53:10;;;;;;;9.15;3.33;;;17.30;77.20;;;;;;4994849;28;20455;-80
2021/06/14 00:55:36;;;;;;;9.75;3.58;;;17.30;78.00;;;;;;5013863;28;20029;-80
2021/06/14 00:58:03;;;;;;;8.73;2.72;;;17.30;77.20;;;;;;5000118;28;20426;-80
2021/06/14 01:00:29;;;;;;;7.68;3.45;;;17.30;77.50;;;;;;4999250;28;20030;-80
2021/06/14 01:02:55;;;;;;;9.05;3.90;;;17.30;77.20;;;;;;4999990;28;20024;-81
2021/06/14 01:05:22;;;;;;;8.65;4.00;;;17.30;77.30;;;;;;5018093;28;20045;-80
2021/06/14 01:07:48;;;;;;;9.02;3.60;;;17.30;77.20;;;;;;5017421;28;20079;-83
2021/06/14 01:10:15;;;;;;;9.18;3.40;;;17.30;77.20;;;;;;5016590;28;20026;-83
2021/06/14 01:13:06;;;;;;;7.68;3.08;;;17.30;77.30;;;;;;5017934;28;20393;-83
2021/06/14 01:15:41;;;;;;;6.22;2.72;;;17.20;77.40;;;;;;5016536;28;20037;-81
2021/06/14 01:18:11;;;;;;;7.50;3.30;;;17.20;77.90;;;;;;5017038;28;20112;-80
2021/06/14 01:20:45;;;;;;;6.00;3.30;;;17.10;77.90;;;;;;4999143;28;20026;-82
2021/06/14 01:23:43;;;;;;;8.00;3.30;;;17.10;78.10;;;;;;5017504;28;20026;-81
2021/06/14 01:26:12;;;;;;;8.43;3.65;;;17.10;78.10;;;;;;4999201;28;20029;-83
2021/06/14 01:28:39;;;;;;;7.55;3.28;;;17.10;78.40;;;;;;5018083;28;20029;-80
2021/06/14 01:31:05;;;;;;;8.68;3.28;;;17.00;78.70;;;;;;4999005;28;20022;-80
2021/06/14 01:33:33;;;;;;;7.68;3.20;;;17.00;78.70;;;;;;5000023;28;20037;-80
2021/06/14 01:36:15;;;;;;;5.88;3.53;;;17.00;78.70;;;;;;4999301;28;20041;-80
2021/06/14 01:38:43;;;;;;;6.57;3.10;;;17.00;78.70;;;;;;4999138;28;20042;-81
2021/06/14 01:41:12;;;;;;;7.50;3.63;;;16.90;78.80;;;;;;5015493;28;20033;-83
2021/06/14 01:43:40;;;;;;;6.07;3.35;;;16.90;79.10;;;;;;5016359;28;20030;-82
2021/06/14 01:46:14;;;;;;;6.50;3.10;;;16.90;79.30;;;;;;5015428;28;20116;-83
2021/06/14 01:48:42;;;;;;;6.65;3.33;;;16.90;79.50;;;;;;5015635;28;20030;-82
2021/06/14 01:51:14;;;;;;;10.45;3.70;;;16.90;79.60;;;;;;4997255;28;20030;-82
2021/06/14 01:53:40;;;;;;;6.78;3.17;;;16.90;80.10;;;;;;5015661;28;20443;-82
2021/06/14 01:56:10;;;;;;;8.93;3.40;;;16.80;80.40;;;;;;5015431;28;20061;-80
2021/06/14 01:58:42;;;;;;;7.22;3.60;;;16.80;80.80;;;;;;4998219;28;20113;-79
2021/06/14 02:01:08;;;;;;;9.30;3.38;;;16.70;82.00;;;;;;5014484;28;20021;-80
2021/06/14 02:03:33;;;;;;;7.85;3.97;;;16.70;81.80;;;;;;5015491;28;20022;-80
2021/06/14 02:06:00;;;;;;;8.48;3.80;;;16.60;82.20;;;;;;5015126;28;20033;-82
2021/06/14 02:08:28;;;;;;;7.13;3.35;;;16.60;82.40;;;;;;4997222;28;20084;-82
2021/06/14 02:10:56;;;;;;;8.68;3.80;;;16.50;83.00;;;;;;4996983;28;20053;-82
2021/06/14 02:13:23;;;;;;;9.32;3.70;;;16.50;83.20;;;;;;5015134;28;20026;-83
2021/06/14 02:15:49;;;;;;;5.90;3.67;;;16.40;83.40;;;;;;4997554;28;20406;-84
2021/06/14 02:18:16;;;;;;;8.52;3.85;;;16.50;83.70;;;;;;4997590;28;20039;-83
2021/06/14 02:20:44;;;;;;;8.38;4.03;;;16.40;84.00;;;;;;5015123;28;20014;-83
2021/06/14 02:23:12;;;;;;;8.77;3.95;;;16.40;84.30;;;;;;5015760;28;20014;-83
2021/06/14 02:25:37;;;;;;;9.43;3.75;;;16.40;84.70;;;;;;4997633;28;20025;-81
2021/06/14 02:28:03;;;;;;;10.25;4.25;;;16.40;85.30;;;;;;5016609;28;20025;-81
2021/06/14 02:30:29;;;;;;;10.40;4.38;;;16.40;85.00;;;;;;4997114;28;20044;-80
2021/06/14 02:32:55;;;;;;;7.65;3.60;;;16.40;85.20;;;;;;5015580;28;20509;-81
2021/06/14 02:35:23;;;;;;;6.93;3.80;;;16.40;85.70;;;;;;4997545;28;20033;-80
2021/06/14 02:37:54;;;;;;;10.95;3.80;;;16.40;85.90;;;;;;5015792;28;20086;-80
2021/06/14 02:40:25;;;;;;;9.32;4.28;;;16.30;86.50;;;;;;5014346;28;20052;-82
2021/06/14 02:42:52;;;;;;;9.00;4.20;;;16.20;87.00;;;;;;4996656;28;20018;-80
2021/06/14 02:45:18;;;;;;;11.13;4.47;;;16.20;87.70;;;;;;5013922;28;20026;-81
2021/06/14 02:47:47;;;;;;;8.60;3.70;;;16.20;88.20;;;;;;5015866;28;20506;-80
2021/06/14 02:50:15;;;;;;;7.82;4.00;;;16.10;88.90;;;;;;4996855;28;20070;-80
2021/06/14 02:52:42;;;;;;;8.88;4.35;;;16.20;89.10;;;;;;5016050;28;20038;-80
2021/06/14 02:55:13;;;;;;;8.68;4.38;;;16.10;89.70;;;;;;5015115;28;20026;-80
2021/06/14 02:57:44;;;;;;;9.85;4.63;;;16.10;90.30;;;;;;4997821;28;20367;-80
2021/06/14 03:00:12;;;;;;;10.18;4.47;;;16.00;90.70;;;;;;5013568;28;20462;-81
2021/06/14 03:02:38;;;;;;;8.63;4.00;;;16.00;91.50;;;;;;5014930;28;20569;-80
2021/06/14 03:05:05;;;;;;;11.90;4.65;;;16.00;91.30;;;;;;4996982;28;20019;-81
2021/06/14 03:07:31;;;;;;;9.70;4.18;;;16.00;91.50;;;;;;5014824;28;20037;-80
2021/06/14 03:09:56;;;;;;;15.60;4.82;;;15.90;91.80;;;;;;5014310;28;20029;-81
2021/06/14 03:12:25;;;;;;;13.30;4.60;;;15.90;91.90;;;;;;4997223;28;20456;-80
2021/06/14 03:14:52;;;;;;;17.63;4.50;;;15.80;91.90;;;;;;4996833;28;20084;-81
2021/06/14 03:17:18;;;;;;;9.75;3.97;;;15.70;92.00;;;;;;5014625;28;20022;-80
2021/06/14 03:19:46;;;;;;;10.02;4.70;;;15.70;92.00;;;;;;5012882;28;20026;-80
2021/06/14 03:22:13;;;;;;;11.38;4.57;;;15.60;92.10;;;;;;5014874;28;20142;-80
2021/06/14 03:24:40;;;;;;;11.48;4.20;;;15.40;92.30;;;;;;4996653;28;20049;-83
2021/06/14 03:27:07;;;;;;;9.05;4.63;;;15.60;92.10;;;;;;4996229;28;20107;-84
2021/06/14 03:29:34;;;;;;;9.85;4.55;;;15.60;91.90;;;;;;4988853;28;20046;-84
2021/06/14 03:32:03;;;;;;;12.07;4.22;;;15.60;91.80;;;;;;4976476;28;20022;-82
2021/06/14 03:34:31;;;;;;;12.30;3.92;;;15.70;91.60;;;;;;4994515;28;20034;-80
2021/06/14 03:36:58;;;;;;;9.55;4.50;;;15.70;91.70;;;;;;4976998;28;20380;-81
2021/06/14 03:39:24;;;;;;;10.27;4.00;;;15.60;91.30;;;;;;4994076;28;20476;-81
2021/06/14 03:41:51;;;;;;;9.40;4.00;;;15.60;91.20;;;;;;4994683;28;20033;-81
2021/06/14 03:44:18;;;;;;;10.52;4.30;;;15.60;91.10;;;;;;4994372;28;20462;-80
2021/06/14 03:46:45;;;;;;;7.68;3.53;;;15.60;91.10;;;;;;4993412;28;20062;-82
2021/06/14 03:49:11;;;;;;;7.47;3.67;;;15.60;91.00;;;;;;4993246;28;20030;-82
2021/06/14 03:51:37;;;;;;;9.13;3.67;;;15.60;91.00;;;;;;4993840;28;20037;-85
2021/06/14 03:54:03;;;;;;;9.18;4.13;;;15.70;90.70;;;;;;4977665;28;20379;-84
2021/06/14 03:56:31;;;;;;;8.70;4.10;;;15.70;90.80;;;;;;4992978;28;20081;-83
2021/06/14 03:58:58;;;;;;;7.40;3.83;;;15.70;90.70;;;;;;4993247;28;20113;-84
2021/06/14 04:01:24;;;;;;;7.40;3.60;;;15.70;90.50;;;;;;4993280;28;20097;-83
2021/06/14 04:04:14;;;;;;;6.53;3.88;;;15.80;90.50;;;;;;4975814;28;20383;-83
2021/06/14 04:06:40;;;;;;;14.93;4.45;;;15.90;90.50;;;;;;4992656;28;20072;-81
2021/06/14 04:09:06;;;;;;;9.77;4.00;;;16.00;90.30;;;;;;4993408;28;20065;-81
2021/06/14 04:11:32;;;;;;;11.50;4.30;;;16.10;90.20;;;;;;4975802;28;20030;-80
2021/06/14 04:13:58;;;;;;;8.70;4.05;;;16.10;90.00;;;;;;4992186;28;20038;-81
2021/06/14 04:16:24;;;;;;;9.88;3.88;;;16.20;90.00;;;;;;4993009;28;20456;-82
2021/06/14 04:18:49;;;;;;;7.13;3.50;;;16.20;90.20;;;;;;4993458;28;20030;-81
2021/06/14 04:21:16;;;;;;;7.78;3.50;;;16.20;89.80;;;;;;4975594;28;20444;-82
2021/06/14 04:23:42;;;;;;;13.98;3.83;;;16.10;89.30;;;;;;4976053;28;20483;-82
2021/06/14 04:26:09;;;;;;;11.02;3.78;;;16.20;90.10;;;;;;4993766;28;20122;-82
2021/06/14 04:28:35;;;;;;;8.20;3.58;;;16.20;89.50;;;;;;4994702;28;20034;-82
2021/06/14 04:31:00;;;;;;;9.38;3.78;;;16.20;89.20;;;;;;4979454;28;20402;-82
2021/06/14 04:33:26;;;;;;;13.45;4.00;;;16.20;89.20;;;;;;4999632;28;20038;-83
2021/06/14 04:35:52;;;;;;;8.15;3.70;;;16.20;88.70;;;;;;4999062;28;20673;-81
2021/06/14 04:38:18;;;;;;;9.30;4.57;;;16.20;88.70;;;;;;4982977;28;20424;-82
2021/06/14 04:40:43;;;;;;;8.60;3.28;;;16.30;88.20;;;;;;4982479;28;20034;-81
2021/06/14 04:43:09;;;;;;;7.25;3.55;;;16.30;88.30;;;;;;5001138;28;20436;-81
2021/06/14 04:45:34;;;;;;;7.63;3.38;;;16.30;88.30;;;;;;4983560;28;20126;-81
2021/06/14 04:48:00;;;;;;;16.55;7.55;;;16.40;88.10;;;;;;5001482;28;20061;-81
2021/06/14 04:50:26;;;;;;;10.60;4.30;;;16.50;87.80;;;;;;5000656;28;20062;-82
2021/06/14 04:52:51;;;;;;;9.82;3.50;;;16.50;87.60;;;;;;5002877;28;20047;-82
2021/06/14 04:55:17;;;;;;;8.48;3.58;;;16.50;87.60;;;;;;4984450;28;20029;-80
2021/06/14 04:57:43;;;;;;;10.38;3.40;;;16.60;87.60;;;;;;4985198;28;20026;-81
2021/06/14 05:00:09;;;;;;;9.75;3.20;;;16.70;87.60;;;;;;4983004;28;20033;-84
2021/06/14 05:02:35;;;;;;;8.30;3.58;;;16.80;87.50;;;;;;5000849;28;20480;-81
2021/06/14 05:05:01;;;;;;;9.23;3.28;;;16.80;87.90;;;;;;5000231;28;20026;-84
2021/06/14 05:07:27;;;;;;;7.20;2.85;;;16.90;87.30;;;;;;4981966;28;20460;-84
2021/06/14 05:09:55;;;;;;;8.93;3.50;;;17.00;87.40;;;;;;4980821;28;20065;-83
2021/06/14 05:12:21;;;;;;;10.35;3.70;;;17.00;86.60;;;;;;4983864;28;20122;-81
2021/06/14 05:14:47;;;;;;;10.00;3.47;;;17.00;86.50;;;;;;4998653;28;20041;-82
2021/06/14 05:17:12;;;;;;;7.53;3.75;;;17.10;86.20;;;;;;4998221;28;20014;-83
2021/06/14 05:19:38;;;;;;;9.63;3.72;;;17.10;86.10;;;;;;4998047;28;20478;-83
2021/06/14 05:22:05;;;;;;;6.53;3.22;;;17.20;86.30;;;;;;4999082;28;20038;-83
2021/06/14 05:24:31;;;;;;;10.38;3.65;;;17.20;86.30;;;;;;4996303;28;20475;-83
2021/06/14 05:26:57;;;;;;;10.52;3.30;;;17.30;86.30;;;;;;4997748;28;20049;-84
2021/06/14 05:29:23;;;;;;;9.40;3.80;;;17.30;86.70;;;;;;4980409;28;20049;-83
2021/06/14 05:31:49;;;;;;;11.20;4.22;;;17.40;87.00;;;;;;4980024;28;20026;-83
2021/06/14 05:34:15;;;;;;;14.65;4.18;;;17.40;87.00;;;;;;4996334;28;20153;-82
2021/06/14 05:36:40;;;;;;;9.00;3.60;;;17.50;87.30;;;;;;4979830;28;20467;-83
2021/06/14 05:39:06;;;;;;;9.13;3.88;;;17.50;86.30;;;;;;4995862;28;20026;-82
2021/06/14 05:41:32;;;;;;;10.57;4.07;;;17.60;85.80;;;;;;4978805;28;20046;-84
2021/06/14 05:43:57;;;;;;;11.10;4.32;;;17.70;85.40;;;;;;4991096;28;20101;-82
2021/06/14 05:46:23;;;;;;;13.35;3.50;;;17.80;85.10;;;;;;4995796;28;20022;-82
2021/06/14 05:48:49;;;;;;;11.25;3.67;;;17.80;84.60;;;;;;4983892;28;20090;-82
2021/06/14 05:51:14;;;;;;;13.35;4.05;;;17.90;85.00;;;;;;4980374;28;20510;-83
2021/06/14 05:53:40;;;;;;;15.32;4.28;;;17.90;84.60;;;;;;4999023;28;20030;-81
2021/06/14 05:56:06;;;;;;;13.38;3.40;;;17.90;84.80;;;;;;4979026;28;20172;-83
2021/06/14 05:58:32;;;;;;;9.57;3.42;;;18.00;84.70;;;;;;4978785;28;20030;-82
2021/06/14 06:00:57;;;;;;;10.15;3.35;;;18.10;83.10;;;;;;4994435;28;20022;-82
2021/06/14 06:03:23;;;;;;;10.55;3.67;;;18.10;82.60;;;;;;4977253;28;20118;-83
2021/06/14 06:05:48;;;;;;;9.20;3.20;;;18.10;82.50;;;;;;4976705;28;20027;-82
2021/06/14 06:08:14;;;;;;;6.18;3.28;;;18.20;81.90;;;;;;4995094;28;20037;-83
2021/06/14 06:10:40;;;;;;;11.10;3.47;;;18.30;82.00;;;;;;4993892;28;20050;-83
2021/06/14 06:13:05;;;;;;;7.20;3.13;;;18.30;82.20;;;;;;4995825;28;20475;-83
2021/06/14 06:15:31;;;;;;;7.55;2.80;;;18.30;81.80;;;;;;4994738;28;20093;-81
2021/06/14 06:17:57;;;;;;;6.93;2.85;;;18.40;81.00;;;;;;4994836;28;20026;-82
2021/06/14 06:20:23;;;;;;;9.18;3.20;;;18.40;81.70;;;;;;4993209;28;20488;-82
2021/06/14 06:22:49;;;;;;;7.47;3.00;;;18.50;81.70;;;;;;4994264;28;20057;-83
2021/06/14 06:25:17;;;;;;;8.07;2.95;;;18.50;81.60;;;;;;4976144;28;20108;-82
2021/06/14 06:27:44;;;;;;;8.33;2.83;;;18.50;82.00;;;;;;4994136;28;20161;-82
2021/06/14 06:30:11;;;;;;;8.07;3.13;;;18.50;80.90;;;;;;4975502;28;20615;-84
2021/06/14 06:32:37;;;;;;;8.30;3.00;;;18.50;81.60;;;;;;4975941;28;20565;-82
2021/06/14 06:35:04;;;;;;;7.43;3.60;;;18.60;81.10;;;;;;4975618;28;20038;-84
2021/06/14 06:37:30;;;;;;;7.40;3.50;;;18.60;81.00;;;;;;4975580;28;20049;-83
2021/06/14 06:39:56;;;;;;;8.85;3.70;;;18.70;81.00;;;;;;4993241;28;20026;-83
2021/06/14 06:42:21;;;;;;;5.60;2.70;;;18.70;81.10;;;;;;4976468;28;20333;-83
2021/06/14 06:44:47;;;;;;;9.63;3.88;;;18.80;80.30;;;;;;4977119;28;20026;-84
2021/06/14 06:47:12;;;;;;;10.32;3.80;;;18.80;83.60;;;;;;4976661;28;20032;-81
2021/06/14 06:49:38;;;;;;;7.57;3.00;;;18.90;79.60;;;;;;4976437;28;20037;-82
2021/06/14 06:52:04;;;;;;;8.48;2.72;;;18.90;78.70;;;;;;4976630;28;20038;-81
2021/06/14 06:54:30;;;;;;;6.70;3.10;;;18.90;78.20;;;;;;4976758;28;20126;-82
2021/06/14 06:56:56;;;;;;;8.63;3.40;;;18.90;78.10;;;;;;4994216;28;20064;-81
2021/06/14 06:59:23;;;;;;;5.95;2.45;;;18.90;78.70;;;;;;4975904;28;20030;-82
2021/06/14 07:01:48;;;;;;;5.57;2.85;;;19.00;78.00;;;;;;4994361;28;20033;-81
2021/06/14 07:04:14;;;;;;;9.48;2.83;;;19.00;78.10;;;;;;4977090;28;20034;-81
2021/06/14 07:06:41;;;;;;;6.07;2.65;;;19.00;77.30;;;;;;4994308;28;20023;-81
2021/06/14 07:09:06;;;;;;;7.70;2.80;;;19.00;77.30;;;;;;4975064;28;20037;-82
2021/06/14 07:11:32;;;;;;;6.78;2.78;;;19.10;77.30;;;;;;4991126;28;20030;-83
2021/06/14 07:13:59;;;;;;;8.23;3.10;;;19.10;77.20;;;;;;4974405;28;20368;-83
2021/06/14 07:16:25;;;;;;;6.93;3.75;;;19.20;76.40;;;;;;4973745;28;20066;-85
2021/06/14 07:18:52;;;;;;;6.28;2.75;;;19.20;76.40;;;;;;4974733;28;20030;-81
2021/06/14 07:21:18;;;;;;;5.10;2.85;;;19.20;76.90;;;;;;4992766;28;20050;-84
2021/06/14 07:23:44;;;;;;;6.82;2.80;;;19.20;76.70;;;;;;4974674;28;20073;-84
2021/06/14 07:26:10;;;;;;;6.22;2.45;;;19.20;76.90;;;;;;4974268;28;20354;-84
2021/06/14 07:28:36;;;;;;;6.47;2.95;;;19.20;77.00;;;;;;4974667;28;20479;-82
2021/06/14 07:31:03;;;;;;;7.22;3.10;;;19.30;76.50;;;;;;4989786;28;20046;-83
2021/06/14 07:33:29;;;;;;;6.57;3.03;;;19.30;77.60;;;;;;4992491;28;20142;-84
2021/06/14 07:35:55;;;;;;;8.23;2.95;;;19.30;77.80;;;;;;4975425;28;20107;-85
2021/06/14 07:38:21;;;;;;;8.27;3.67;;;19.30;76.80;;;;;;4975344;28;20157;-84
2021/06/14 07:40:48;;;;;;;7.38;3.50;;;19.40;77.70;;;;;;4974271;28;20085;-84
2021/06/14 07:43:14;;;;;;;12.75;3.38;;;19.40;77.50;;;;;;4993685;28;20050;-86
2021/06/14 07:45:42;;;;;;;10.13;3.80;;;19.40;76.20;;;;;;4974775;28;20029;-85
2021/06/14 07:48:09;;;;;;;8.65;3.30;;;19.50;75.50;;;;;;4993536;28;20041;-85
2021/06/14 07:50:35;;;;;;;6.18;2.75;;;19.50;76.10;;;;;;4973897;28;20403;-83
2021/06/14 07:53:02;;;;;;;9.02;3.40;;;19.50;76.20;;;;;;4992642;28;20030;-82
2021/06/14 07:55:28;;;;;;;6.72;2.92;;;19.60;75.30;;;;;;4991663;28;20113;-83
2021/06/14 07:57:54;;;;;;;9.45;3.63;;;19.60;75.40;;;;;;4991873;28;20109;-83
2021/06/14 08:00:19;;;;;;;9.15;2.88;;;19.60;75.60;;;;;;4990663;28;20041;-83
2021/06/14 08:02:47;;;;;;;5.65;2.90;;;19.80;73.60;;;;;;4973899;28;20032;-82
2021/06/14 08:05:13;;;;;;;6.55;2.35;;;19.80;73.60;;;;;;4990798;28;20022;-84
2021/06/14 08:07:40;;;;;;;7.85;3.15;;;19.80;74.00;;;;;;4973716;28;20026;-84
2021/06/14 08:10:10;;;;;;;8.02;3.00;;;19.80;74.90;;;;;;5005044;28;20137;-84
2021/06/14 08:12:42;;;;;;;9.02;3.28;;;19.90;74.70;;;;;;4993149;28;20450;-85
2021/06/14 08:15:08;;;;;;;9.23;3.10;;;20.00;73.80;;;;;;5009339;28;20459;-84
2021/06/14 08:17:34;;;;;;;6.65;2.83;;;19.90;74.50;;;;;;4994078;28;20026;-86
2021/06/14 08:20:07;;;;;;;8.00;3.20;;;20.00;73.60;;;;;;5011894;28;20102;-84
2021/06/14 08:25:06;;;;;;;9.80;3.13;;;20.10;72.60;;;;;;4971423;28;20150;-85
2021/06/14 08:27:40;;;;;;;6.82;2.90;;;20.10;73.00;;;;;;4953832;28;20107;-84
2021/06/14 08:30:09;;;;;;;5.97;3.00;;;20.10;72.80;;;;;;4970968;28;20109;-85
2021/06/14 08:32:36;;;;;;;6.88;2.60;;;20.10;73.10;;;;;;4971371;28;20027;-85
2021/06/14 08:35:04;;;;;;;5.43;2.40;;;20.10;73.80;;;;;;4953737;28;20026;-83
2021/06/14 08:37:29;;;;;;;5.07;2.72;;;20.10;74.00;;;;;;4953783;28;20042;-85
2021/06/14 08:39:55;;;;;;;5.05;2.72;;;20.10;74.50;;;;;;4970834;28;20023;-85
2021/06/14 08:42:21;;;;;;;5.35;2.88;;;20.10;74.20;;;;;;4986197;28;20519;-85
2021/06/14 08:44:47;;;;;;;7.30;2.85;;;20.10;73.40;;;;;;4986126;28;20050;-85
2021/06/14 08:47:13;;;;;;;7.68;3.00;;;20.20;73.20;;;;;;4954073;28;20027;-86
2021/06/14 08:49:41;;;;;;;6.75;3.03;;;20.20;72.80;;;;;;4985578;28;20117;-85
2021/06/14 08:52:07;;;;;;;5.50;2.70;;;20.40;71.10;;;;;;4957086;28;20101;-84
2021/06/14 08:54:33;;;;;;;8.52;3.10;;;20.40;71.10;;;;;;4989396;28;20145;-85
2021/06/14 08:56:59;;;;;;;4.75;2.72;;;20.50;70.90;;;;;;4989253;28;20038;-83
2021/06/14 08:59:25;;;;;;;5.85;2.40;;;20.50;70.60;;;;;;4989111;28;20026;-83
2021/06/14 09:01:51;;;;;;;11.73;3.88;;;20.50;71.10;;;;;;4989644;28;20367;-86
2021/06/14 09:04:19;;;;;;;5.80;2.90;;;20.50;73.00;;;;;;4989774;28;20030;-86
2021/06/14 09:06:45;;;;;;;7.28;3.35;;;20.50;72.60;;;;;;4990855;28;20045;-87
2021/06/14 09:09:11;;;;;;;8.05;3.47;;;20.50;73.00;;;;;;4989492;28;20030;-88
2021/06/14 09:11:46;;;;;;;7.70;3.25;;;20.60;72.00;;;;;;4990082;28;20386;-89
2021/06/14 09:14:21;;;;;;;6.88;3.17;;;20.60;72.20;;;;;;5006264;28;20022;-86
2021/06/14 09:16:50;;;;;;;7.28;3.30;;;20.60;71.60;;;;;;4990918;28;20028;-88
2021/06/14 09:19:30;;;;;;;;;;;20.60;70.80;;;;;;4993416;28;20037;-88
2021/06/14 09:22:08;;;;;;;6.72;2.90;;;20.60;70.30;;;;;;5009848;28;19919;-86
2021/06/14 09:24:34;;;;;;;13.23;3.50;;;20.70;72.10;;;;;;4994711;28;20027;-87
2021/06/14 09:27:00;;;;;;;12.68;3.50;;;20.80;82.20;;;;;;5009532;28;20153;-87
2021/06/14 09:29:28;;;;;;;9.25;3.50;;;20.80;82.10;;;;;;4992699;28;20065;-87
2021/06/14 09:31:58;;;;;;;10.23;3.47;;;20.80;80.90;;;;;;4992648;28;20048;-87
2021/06/14 09:34:53;;;;;;;9.15;3.70;;;20.80;80.20;;;;;;4992883;28;20092;-87
2021/06/14 09:37:20;;;;;;;9.57;3.30;;;20.80;75.00;;;;;;4992639;28;20471;-87
2021/06/14 09:39:48;;;;;;;5.80;3.10;;;20.80;74.10;;;;;;4991927;28;20034;-87
2021/06/14 09:42:15;;;;;;;11.23;4.22;;;20.80;75.20;;;;;;4994588;28;20027;-83
2021/06/14 09:44:42;;;;;;;9.50;3.80;;;20.90;73.00;;;;;;4994418;28;20034;-86
2021/06/14 09:47:10;;;;;;;8.00;3.00;;;21.00;78.90;;;;;;4993805;28;20411;-84
2021/06/14 09:49:37;;;;;;;32.20;4.88;;;21.10;73.60;;;;;;4992063;28;20184;-85
2021/06/14 09:52:04;;;;;;;11.52;3.90;;;21.20;71.80;;;;;;4992817;28;20034;-86
2021/06/14 09:54:32;;;;;;;6.85;4.07;;;21.10;70.70;;;;;;4992512;28;20026;-86
2021/06/14 09:56:59;;;;;;;8.23;3.90;;;21.10;71.10;;;;;;4992885;28;20120;-85
2021/06/14 09:59:28;;;;;;;9.23;3.83;;;21.20;71.30;;;;;;4993123;28;20352;-85
2021/06/14 10:02:17;;;;;;;8.80;3.33;;;21.30;70.10;;;;;;4976026;28;20030;-84
2021/06/14 10:04:44;;;;;;;7.60;3.10;;;21.30;68.50;;;;;;4976083;28;20034;-85
2021/06/14 10:07:16;;;;;;;8.32;3.00;;;21.50;66.80;;;;;;4975403;28;20026;-85
2021/06/14 10:09:49;;;;;;;8.98;3.47;;;21.60;65.50;;;;;;4975338;28;20507;-85
2021/06/14 10:12:26;;;;;;;7.60;2.88;;;21.60;66.00;;;;;;4975858;28;20041;-84
2021/06/14 10:14:56;;;;;;;7.38;3.13;;;21.60;65.50;;;;;;4975746;28;20113;-84
2021/06/14 10:17:34;;;;;;;9.27;3.20;;;21.50;66.10;;;;;;4975453;28;20077;-85
2021/06/14 10:20:18;;;;;;;8.50;3.90;;;21.50;66.60;;;;;;4979079;28;20470;-85
2021/06/14 10:22:45;;;;;;;8.35;3.35;;;21.50;66.30;;;;;;4995227;28;20022;-85
2021/06/14 10:25:12;;;;;;;5.78;3.10;;;21.50;65.70;;;;;;5011684;28;20074;-84
2021/06/14 10:27:38;;;;;;;9.02;2.80;;;21.50;67.60;;;;;;4993828;28;20174;-84
2021/06/14 10:30:09;;;;;;;6.85;2.90;;;21.50;68.10;;;;;;4992838;28;20022;-84
2021/06/14 10:32:36;;;;;;;6.10;2.70;;;21.50;68.50;;;;;;4977754;28;20026;-85
2021/06/14 10:35:03;;;;;;;7.55;2.83;;;21.60;65.30;;;;;;4994650;28;20027;-84
2021/06/14 10:37:30;;;;;;;6.43;2.47;;;21.70;60.00;;;;;;4976975;28;20764;-84
2021/06/14 10:39:57;;;;;;;6.55;2.65;;;21.80;60.90;;;;;;4977523;28;20061;-84
2021/06/14 10:42:23;;;;;;;7.20;2.58;;;21.80;62.20;;;;;;4978738;28;20066;-85
2021/06/14 10:44:49;;;;;;;6.60;2.72;;;21.70;63.10;;;;;;4995192;28;20064;-86
2021/06/14 10:47:15;;;;;;;7.57;2.83;;;21.70;63.50;;;;;;4995737;28;20022;-86
2021/06/14 10:49:41;;;;;;;7.63;2.80;;;21.90;62.00;;;;;;4993573;28;20347;-84
2021/06/14 10:52:07;;;;;;;5.28;2.47;;;21.80;61.90;;;;;;4995717;28;20108;-84
2021/06/14 10:54:41;;;;;;;10.32;3.38;;;21.80;62.90;;;;;;5003580;28;20522;-84
2021/06/14 10:57:09;;;;;;;10.25;2.85;;;21.80;63.90;;;;;;4995932;28;20489;-83
2021/06/14 10:59:39;;;;;;;6.97;3.50;;;21.90;64.90;;;;;;4975274;28;20031;-84
2021/06/14 11:02:07;;;;;;;9.82;3.80;;;21.90;65.50;;;;;;4957758;28;20049;-86
2021/06/14 11:04:33;;;;;;;8.77;4.30;;;22.00;68.50;;;;;;4975278;28;20130;-85
2021/06/14 11:07:00;;;;;;;8.32;3.40;;;22.10;63.90;;;;;;4970372;28;20038;-84
2021/06/14 11:09:38;;;;;;;6.85;3.40;;;22.00;64.00;;;;;;4976826;28;20484;-85
2021/06/14 11:12:05;;;;;;;;;;;22.00;64.00;;;;;;4995332;28;20034;-83
2021/06/14 11:14:34;;;;;;;10.77;4.00;;;22.00;62.90;;;;;;4994941;28;20425;-84
2021/06/14 11:17:24;;;;;;;7.05;3.03;;;22.10;62.30;;;;;;4993672;28;20640;-84
2021/06/14 11:19:59;;;;;;;6.90;3.13;;;22.10;62.40;;;;;;4977056;28;20038;-83
2021/06/14 11:22:42;;;;;;;9.07;3.45;;;22.10;63.70;;;;;;4995253;28;20030;-84
2021/06/14 11:25:21;;;;;;;8.43;3.42;;;22.10;63.70;;;;;;4977295;28;20093;-83
2021/06/14 11:27:47;;;;;;;9.85;4.03;;;22.10;62.70;;;;;;4994250;28;20018;-84
2021/06/14 11:30:15;;;;;;;11.43;3.78;;;22.20;62.20;;;;;;4976046;28;20033;-84
2021/06/14 11:32:41;;;;;;;8.43;3.67;;;22.40;61.90;;;;;;4994408;28;20031;-84
2021/06/14 11:35:08;;;;;;;12.00;4.50;;;22.40;60.10;;;;;;4976888;28;20125;-84
2021/06/14 11:37:43;;;;;;;9.95;4.22;;;22.60;59.00;;;;;;4978120;28;20084;-84
2021/06/14 11:40:10;;;;;;;9.70;3.97;;;22.60;60.00;;;;;;4977094;28;20451;-82
2021/06/14 11:42:59;;;;;;;9.32;4.50;;;22.50;60.30;;;;;;4978649;28;20026;-83
2021/06/14 11:45:31;;;;;;;8.55;3.90;;;22.50;61.50;;;;;;4993063;28;20125;-83
2021/06/14 11:47:59;;;;;;;14.48;5.55;;;22.40;62.20;;;;;;4978403;28;20483;-83
2021/06/14 11:50:28;;;;;;;13.77;5.60;;;22.50;61.40;;;;;;4997498;28;20026;-84
2021/06/14 11:53:05;;;;;;;11.48;5.28;;;22.90;61.80;;;;;;5007739;28;20034;-85
2021/06/14 11:55:37;;;;;;;10.05;4.20;;;22.90;61.30;;;;;;5014189;28;20061;-83
2021/06/14 11:58:09;;;;;;;9.30;3.90;;;22.90;61.50;;;;;;4999859;28;20057;-81
2021/06/14 12:00:41;;;;;;;10.35;4.00;;;22.90;61.80;;;;;;4972740;28;20109;-83
2021/06/14 12:03:24;;;;;;;11.75;3.85;;;23.10;61.50;;;;;;4973872;28;20499;-84
2021/06/14 12:05:54;;;;;;;10.48;3.53;;;23.20;61.00;;;;;;4991021;28;20029;-85
2021/06/14 12:08:22;;;;;;;8.00;3.70;;;23.10;61.70;;;;;;4989864;28;20026;-85
2021/06/14 12:10:50;;;;;;;8.13;3.55;;;23.20;62.50;;;;;;4972686;28;20030;-84
2021/06/14 12:13:19;;;;;;;6.82;3.45;;;23.10;62.40;;;;;;4973544;28;20321;-85
2021/06/14 12:15:50;;;;;;;9.07;3.40;;;23.10;61.60;;;;;;4990944;28;20092;-85
2021/06/14 12:18:17;;;;;;;8.02;3.22;;;23.10;62.20;;;;;;4969919;28;20110;-85
2021/06/14 12:20:46;;;;;;;7.82;3.10;;;23.20;62.30;;;;;;4991059;28;20042;-86
2021/06/14 12:23:15;;;;;;;6.28;2.97;;;23.30;62.70;;;;;;5010360;28;20033;-82
2021/06/14 12:25:42;;;;;;;;;;;23.30;62.90;;;;;;5005605;28;20053;-84
2021/06/14 12:28:13;;;;;;;9.27;3.45;;;23.50;62.50;;;;;;4991375;28;20441;-83
2021/06/14 12:30:41;;;;;;;10.05;3.33;;;23.60;60.80;;;;;;4972063;28;20062;-85
2021/06/14 12:33:07;;;;;;;9.63;3.47;;;23.70;60.40;;;;;;4992293;28;20026;-84
2021/06/14 12:35:33;;;;;;;8.15;3.50;;;23.80;60.00;;;;;;4991582;28;20034;-84
2021/06/14 12:38:12;;;;;;;6.93;3.08;;;23.80;60.50;;;;;;4989207;28;20125;-84
2021/06/14 12:40:40;;;;;;;5.97;3.40;;;23.90;60.50;;;;;;4990689;28;20032;-83
2021/06/14 12:43:09;;;;;;;8.45;3.60;;;24.00;59.00;;;;;;4973769;28;20039;-84
2021/06/14 12:45:38;;;;;;;8.25;3.50;;;24.20;58.90;;;;;;4973007;28;20023;-84
2021/06/14 12:48:05;;;;;;;;;;;24.20;58.90;;;;;;4991595;28;20085;-83
2021/06/14 12:50:34;;;;;;;7.32;3.63;;;24.30;59.40;;;;;;4990480;28;19953;-83
2021/06/14 12:53:02;;;;;;;7.05;3.17;;;24.30;57.60;;;;;;4995041;28;20018;-83